createdAt,value
2022-12-18T00:00:01.523Z,1032.03
2022-12-18T00:01:01.140Z,1032.08
2022-12-18T00:02:01.230Z,1032.15
2022-12-18T00:03:02.182Z,1032.14
2022-12-18T00:04:01.742Z,1032.14
2022-12-18T00:05:01.075Z,1032.1
2022-12-18T00:06:01.363Z,1032.1
2022-12-18T00:07:01.374Z,1032.13
2022-12-18T00:08:01.664Z,1032.11
2022-12-18T00:09:01.209Z,1032.13
2022-12-18T00:10:02.007Z,1032.07
2022-12-18T00:11:01.136Z,1032.04
2022-12-18T00:13:03.854Z,1032.01
2022-12-18T00:14:01.982Z,1032.08
2022-12-18T00:15:01.414Z,1032.07
2022-12-18T00:16:01.549Z,1032.15
2022-12-18T00:17:01.241Z,1032.14
2022-12-18T00:18:01.186Z,1032.2
2022-12-18T00:19:01.247Z,1032.19
2022-12-18T00:20:01.192Z,1032.23
2022-12-18T00:21:01.177Z,1032.25
2022-12-18T00:22:01.053Z,1032.25
2022-12-18T00:23:01.105Z,1032.26
2022-12-18T00:24:01.076Z,1032.29
2022-12-18T00:25:01.350Z,1032.24
2022-12-18T00:26:04.026Z,1032.29
2022-12-18T00:27:01.086Z,1032.26
2022-12-18T00:28:01.106Z,1032.3
2022-12-18T00:29:01.102Z,1032.34
2022-12-18T00:30:01.237Z,1032.27
2022-12-18T00:31:01.180Z,1032.32
2022-12-18T00:32:01.455Z,1032.29
2022-12-18T00:33:01.369Z,1032.26
2022-12-18T00:34:01.531Z,1032.29
2022-12-18T00:35:01.542Z,1032.28
2022-12-18T00:36:01.128Z,1032.28
2022-12-18T00:37:01.821Z,1032.28
2022-12-18T00:38:01.148Z,1032.3
2022-12-18T00:39:02.229Z,1032.3
2022-12-18T00:40:01.777Z,1032.33
2022-12-18T00:41:01.889Z,1032.3
2022-12-18T00:42:01.084Z,1032.32
2022-12-18T00:43:01.090Z,1032.36
2022-12-18T00:44:01.104Z,1032.34
2022-12-18T00:45:01.112Z,1032.34
2022-12-18T00:46:01.328Z,1032.4
2022-12-18T00:47:01.205Z,1032.4
2022-12-18T00:48:01.960Z,1032.38
2022-12-18T00:49:01.169Z,1032.41
2022-12-18T00:50:01.956Z,1032.37
2022-12-18T00:51:01.229Z,1032.36
2022-12-18T00:52:02.066Z,1032.37
2022-12-18T00:53:01.952Z,1032.34
2022-12-18T00:54:00.952Z,1032.29
2022-12-18T00:55:06.048Z,1032.29
2022-12-18T00:56:01.477Z,1032.32
2022-12-18T00:57:01.756Z,1032.24
2022-12-18T00:58:01.147Z,1032.28
2022-12-18T00:59:01.089Z,1032.28
2022-12-18T01:00:01.256Z,1032.29
2022-12-18T01:01:04.664Z,1032.24
2022-12-18T01:02:01.234Z,1032.27
2022-12-18T01:03:02.097Z,1032.23
2022-12-18T01:04:01.378Z,1032.22
2022-12-18T01:05:01.659Z,1032.27
2022-12-18T01:06:07.682Z,1032.27
2022-12-18T01:07:01.565Z,1032.29
2022-12-18T01:08:01.222Z,1032.26
2022-12-18T01:09:01.947Z,1032.26
2022-12-18T01:10:02.601Z,1032.28
2022-12-18T01:11:10.374Z,1032.26
2022-12-18T01:12:01.422Z,1032.26
2022-12-18T01:13:02.025Z,1032.28
2022-12-18T01:14:04.027Z,1032.28
2022-12-18T01:15:01.062Z,1032.24
2022-12-18T01:16:13.520Z,1032.19
2022-12-18T01:17:01.884Z,1032.23
2022-12-18T01:18:01.211Z,1032.18
2022-12-18T01:19:00.478Z,1032.24
2022-12-18T01:20:00.105Z,1032.18
2022-12-18T01:21:15.250Z,1032.21
2022-12-18T01:22:01.275Z,1032.19
2022-12-18T01:23:01.288Z,1032.22
2022-12-18T01:24:01.364Z,1032.22
2022-12-18T01:25:01.542Z,1032.21
2022-12-18T01:26:16.857Z,1032.27
2022-12-18T01:27:02.862Z,1032.28
2022-12-18T01:28:01.158Z,1032.28
2022-12-18T01:29:01.133Z,1032.28
2022-12-18T01:30:01.194Z,1032.29
2022-12-18T01:31:01.147Z,1032.26
2022-12-18T01:32:01.344Z,1032.28
2022-12-18T01:33:01.259Z,1032.32
2022-12-18T01:34:04.031Z,1032.33
2022-12-18T01:35:02.257Z,1032.35
2022-12-18T01:36:01.152Z,1032.39
2022-12-18T01:37:01.138Z,1032.37
2022-12-18T01:38:01.146Z,1032.36
2022-12-18T01:39:01.146Z,1032.4
2022-12-18T01:40:01.067Z,1032.37
2022-12-18T01:41:00.750Z,1032.39
2022-12-18T01:42:00.429Z,1032.45
2022-12-18T01:43:00.109Z,1032.43
2022-12-18T01:43:59.668Z,1032.46
2022-12-18T01:45:01.885Z,1032.44
2022-12-18T01:46:01.795Z,1032.45
2022-12-18T01:47:01.123Z,1032.4
2022-12-18T01:48:01.468Z,1032.39
2022-12-18T01:49:00.718Z,1032.42
2022-12-18T01:50:00.369Z,1032.4
2022-12-18T01:50:59.964Z,1032.44
2022-12-18T01:51:59.563Z,1032.46
2022-12-18T01:53:01.164Z,1032.42
2022-12-18T01:54:01.123Z,1032.44
2022-12-18T01:55:01.123Z,1032.46
2022-12-18T01:56:01.136Z,1032.51
2022-12-18T01:57:01.850Z,1032.52
2022-12-18T01:58:01.281Z,1032.48
2022-12-18T01:59:02.299Z,1032.52
2022-12-18T02:00:01.979Z,1032.55
2022-12-18T02:01:02.164Z,1032.51
2022-12-18T02:02:02.173Z,1032.5
2022-12-18T02:03:00.951Z,1032.46
2022-12-18T02:04:01.138Z,1032.5
2022-12-18T02:05:01.130Z,1032.53
2022-12-18T02:06:01.488Z,1032.53
2022-12-18T02:07:01.118Z,1032.47
2022-12-18T02:08:01.117Z,1032.53
2022-12-18T02:09:01.172Z,1032.47
2022-12-18T02:10:01.125Z,1032.49
2022-12-18T02:11:01.552Z,1032.51
2022-12-18T02:12:01.312Z,1032.53
2022-12-18T02:13:01.061Z,1032.53
2022-12-18T02:14:01.159Z,1032.56
2022-12-18T02:15:01.060Z,1032.62
2022-12-18T02:16:01.156Z,1032.63
2022-12-18T02:17:01.674Z,1032.65
2022-12-18T02:18:01.067Z,1032.68
2022-12-18T02:19:01.136Z,1032.72
2022-12-18T02:20:01.078Z,1032.68
2022-12-18T02:21:01.116Z,1032.67
2022-12-18T02:22:01.677Z,1032.73
2022-12-18T02:23:01.713Z,1032.76
2022-12-18T02:24:01.160Z,1032.77
2022-12-18T02:25:01.186Z,1032.73
2022-12-18T02:26:01.515Z,1032.79
2022-12-18T02:27:01.134Z,1032.79
2022-12-18T02:28:01.060Z,1032.79
2022-12-18T02:29:01.084Z,1032.76
2022-12-18T02:30:01.481Z,1032.72
2022-12-18T02:31:01.620Z,1032.75
2022-12-18T02:32:01.467Z,1032.73
2022-12-18T02:33:01.179Z,1032.76
2022-12-18T02:34:01.171Z,1032.71
2022-12-18T02:35:01.781Z,1032.7
2022-12-18T02:36:01.886Z,1032.68
2022-12-18T02:37:01.096Z,1032.65
2022-12-18T02:38:01.478Z,1032.64
2022-12-18T02:39:01.112Z,1032.61
2022-12-18T02:40:01.147Z,1032.64
2022-12-18T02:41:01.677Z,1032.64
2022-12-18T02:42:01.115Z,1032.67
2022-12-18T02:43:01.129Z,1032.65
2022-12-18T02:44:00.838Z,1032.71
2022-12-18T02:45:01.129Z,1032.69
2022-12-18T02:46:01.280Z,1032.69
2022-12-18T02:47:00.983Z,1032.67
2022-12-18T02:48:01.425Z,1032.72
2022-12-18T02:49:01.544Z,1032.76
2022-12-18T02:50:01.159Z,1032.77
2022-12-18T02:51:01.774Z,1032.76
2022-12-18T02:52:03.557Z,1032.73
2022-12-18T02:53:01.596Z,1032.71
2022-12-18T02:54:01.225Z,1032.74
2022-12-18T02:55:01.895Z,1032.75
2022-12-18T02:56:01.120Z,1032.73
2022-12-18T02:57:05.573Z,1032.73
2022-12-18T02:58:01.227Z,1032.71
2022-12-18T02:59:01.218Z,1032.69
2022-12-18T03:00:01.228Z,1032.72
2022-12-18T03:01:01.343Z,1032.78
2022-12-18T03:02:06.947Z,1032.77
2022-12-18T03:03:01.211Z,1032.78
2022-12-18T03:04:01.143Z,1032.76
2022-12-18T03:05:01.184Z,1032.78
2022-12-18T03:06:01.073Z,1032.78
2022-12-18T03:07:08.798Z,1032.78
2022-12-18T03:08:00.753Z,1032.8
2022-12-18T03:09:00.456Z,1032.83
2022-12-18T03:10:00.264Z,1032.79
2022-12-18T03:10:59.942Z,1032.82
2022-12-18T03:12:11.795Z,1032.81
2022-12-18T03:13:01.126Z,1032.81
2022-12-18T03:14:01.800Z,1032.8
2022-12-18T03:15:01.112Z,1032.84
2022-12-18T03:16:01.113Z,1032.84
2022-12-18T03:17:15.518Z,1032.87
2022-12-18T03:18:01.516Z,1032.87
2022-12-18T03:19:01.236Z,1032.91
2022-12-18T03:20:01.144Z,1032.92
2022-12-18T03:21:01.239Z,1032.89
2022-12-18T03:22:02.082Z,1032.88
2022-12-18T03:23:01.255Z,1032.87
2022-12-18T03:24:01.076Z,1032.89
2022-12-18T03:25:01.071Z,1032.95
2022-12-18T03:26:07.122Z,1032.88
2022-12-18T03:27:01.479Z,1032.92
2022-12-18T03:28:01.142Z,1032.92
2022-12-18T03:29:01.202Z,1032.99
2022-12-18T03:30:01.101Z,1032.93
2022-12-18T03:31:01.199Z,1032.93
2022-12-18T03:32:00.913Z,1032.9
2022-12-18T03:33:01.121Z,1032.92
2022-12-18T03:34:00.812Z,1032.94
2022-12-18T03:35:00.546Z,1032.9
2022-12-18T03:36:00.202Z,1032.94
2022-12-18T03:36:59.796Z,1032.92
2022-12-18T03:38:01.373Z,1032.98
2022-12-18T03:39:01.109Z,1032.92
2022-12-18T03:40:01.250Z,1032.94
2022-12-18T03:41:01.809Z,1032.96
2022-12-18T03:42:01.269Z,1032.93
2022-12-18T03:43:01.871Z,1032.9
2022-12-18T03:44:01.168Z,1032.86
2022-12-18T03:45:01.109Z,1032.92
2022-12-18T03:46:01.133Z,1032.92
2022-12-18T03:47:01.105Z,1032.91
2022-12-18T03:48:01.122Z,1032.88
2022-12-18T03:49:01.360Z,1032.86
2022-12-18T03:50:01.176Z,1032.83
2022-12-18T03:51:01.234Z,1032.87
2022-12-18T03:52:02.089Z,1032.86
2022-12-18T03:53:01.298Z,1032.88
2022-12-18T03:54:01.144Z,1032.86
2022-12-18T03:55:01.525Z,1032.79
2022-12-18T03:56:01.169Z,1032.8
2022-12-18T03:57:01.160Z,1032.83
2022-12-18T03:58:01.443Z,1032.77
2022-12-18T03:59:01.086Z,1032.83
2022-12-18T04:00:01.064Z,1032.8
2022-12-18T04:01:01.078Z,1032.89
2022-12-18T04:02:01.287Z,1032.91
2022-12-18T04:03:01.139Z,1032.92
2022-12-18T04:04:01.114Z,1032.96
2022-12-18T04:05:01.106Z,1032.98
2022-12-18T04:06:01.113Z,1032.95
2022-12-18T04:07:01.138Z,1033.02
2022-12-18T04:08:01.371Z,1033.01
2022-12-18T04:09:01.127Z,1033.03
2022-12-18T04:10:01.165Z,1033.1
2022-12-18T04:11:01.056Z,1033.06
2022-12-18T04:12:01.176Z,1033.05
2022-12-18T04:13:01.055Z,1033.09
2022-12-18T04:14:04.660Z,1033.09
2022-12-18T04:15:01.075Z,1033.12
2022-12-18T04:16:01.235Z,1033.11
2022-12-18T04:17:01.360Z,1033.18
2022-12-18T04:18:02.159Z,1033.19
2022-12-18T04:19:01.093Z,1033.17
2022-12-18T04:20:01.047Z,1033.12
2022-12-18T04:21:01.116Z,1033.1
2022-12-18T04:22:01.113Z,1033.04
2022-12-18T04:23:01.038Z,1033.03
2022-12-18T04:24:00.701Z,1033.06
2022-12-18T04:25:01.034Z,1033.08
2022-12-18T04:26:01.523Z,1033.06
2022-12-18T04:27:01.168Z,1033.03
2022-12-18T04:28:01.221Z,1033.09
2022-12-18T04:29:01.216Z,1033.04
2022-12-18T04:30:02.490Z,1033.08
2022-12-18T04:31:02.074Z,1033.11
2022-12-18T04:32:01.747Z,1033.09
2022-12-18T04:33:01.067Z,1033.09
2022-12-18T04:34:01.078Z,1033.15
2022-12-18T04:35:01.548Z,1033.18
2022-12-18T04:36:01.063Z,1033.16
2022-12-18T04:37:01.111Z,1033.18
2022-12-18T04:38:03.424Z,1033.27
2022-12-18T04:39:01.121Z,1033.27
2022-12-18T04:40:01.125Z,1033.3
2022-12-18T04:41:01.776Z,1033.29
2022-12-18T04:42:01.608Z,1033.25
2022-12-18T04:43:07.757Z,1033.3
2022-12-18T04:44:01.203Z,1033.28
2022-12-18T04:45:01.325Z,1033.26
2022-12-18T04:46:01.208Z,1033.29
2022-12-18T04:47:01.083Z,1033.24
2022-12-18T04:48:11.103Z,1033.25
2022-12-18T04:49:01.478Z,1033.21
2022-12-18T04:50:01.198Z,1033.26
2022-12-18T04:51:01.099Z,1033.18
2022-12-18T04:52:02.062Z,1033.23
2022-12-18T04:53:14.601Z,1033.3
2022-12-18T04:54:01.423Z,1033.25
2022-12-18T04:55:01.062Z,1033.28
2022-12-18T04:56:01.229Z,1033.32
2022-12-18T04:57:01.233Z,1033.35
2022-12-18T04:58:01.136Z,1033.32
2022-12-18T04:59:01.564Z,1033.3
2022-12-18T05:00:01.139Z,1033.27
2022-12-18T05:01:01.088Z,1033.29
2022-12-18T05:02:01.184Z,1033.3
2022-12-18T05:03:01.281Z,1033.27
2022-12-18T05:04:05.810Z,1033.22
2022-12-18T05:05:02.611Z,1033.25
2022-12-18T05:06:01.919Z,1033.27
2022-12-18T05:07:01.088Z,1033.27
2022-12-18T05:08:01.110Z,1033.3
2022-12-18T05:09:01.111Z,1033.36
2022-12-18T05:10:01.114Z,1033.31
2022-12-18T05:11:01.114Z,1033.39
2022-12-18T05:12:01.121Z,1033.39
2022-12-18T05:13:01.641Z,1033.38
2022-12-18T05:14:01.321Z,1033.42
2022-12-18T05:15:01.213Z,1033.47
2022-12-18T05:16:01.252Z,1033.45
2022-12-18T05:17:01.583Z,1033.47
2022-12-18T05:18:01.880Z,1033.49
2022-12-18T05:19:01.550Z,1033.43
2022-12-18T05:20:00.582Z,1033.4
2022-12-18T05:21:00.283Z,1033.39
2022-12-18T05:22:00.052Z,1033.41
2022-12-18T05:22:59.762Z,1033.41
2022-12-18T05:23:59.847Z,1033.37
2022-12-18T05:25:01.482Z,1033.43
2022-12-18T05:26:01.110Z,1033.4
2022-12-18T05:27:01.098Z,1033.37
2022-12-18T05:28:01.134Z,1033.39
2022-12-18T05:29:01.362Z,1033.34
2022-12-18T05:30:01.244Z,1033.37
2022-12-18T05:31:01.465Z,1033.4
2022-12-18T05:32:01.154Z,1033.41
2022-12-18T05:33:01.477Z,1033.42
2022-12-18T05:34:01.157Z,1033.45
2022-12-18T05:35:01.196Z,1033.45
2022-12-18T05:36:01.264Z,1033.43
2022-12-18T05:37:01.089Z,1033.44
2022-12-18T05:38:01.090Z,1033.44
2022-12-18T05:39:01.228Z,1033.48
2022-12-18T05:40:01.309Z,1033.47
2022-12-18T05:41:01.096Z,1033.55
2022-12-18T05:42:01.251Z,1033.53
2022-12-18T05:43:01.786Z,1033.51
2022-12-18T05:44:01.121Z,1033.53
2022-12-18T05:45:01.490Z,1033.51
2022-12-18T05:46:01.161Z,1033.52
2022-12-18T05:47:01.195Z,1033.52
2022-12-18T05:48:01.159Z,1033.51
2022-12-18T05:49:01.138Z,1033.54
2022-12-18T05:50:00.914Z,1033.55
2022-12-18T05:51:01.150Z,1033.58
2022-12-18T05:52:01.225Z,1033.6
2022-12-18T05:53:02.406Z,1033.62
2022-12-18T05:54:01.248Z,1033.64
2022-12-18T05:55:01.308Z,1033.66
2022-12-18T05:56:01.765Z,1033.67
2022-12-18T05:57:01.615Z,1033.73
2022-12-18T05:58:02.422Z,1033.69
2022-12-18T05:59:01.896Z,1033.68
2022-12-18T06:00:01.082Z,1033.7
2022-12-18T06:01:01.116Z,1033.73
2022-12-18T06:02:01.289Z,1033.73
2022-12-18T06:03:02.478Z,1033.74
2022-12-18T06:04:02.110Z,1033.75
2022-12-18T06:05:02.298Z,1033.77
2022-12-18T06:06:01.341Z,1033.78
2022-12-18T06:07:01.146Z,1033.76
2022-12-18T06:08:01.166Z,1033.78
2022-12-18T06:09:01.058Z,1033.76
2022-12-18T06:10:03.719Z,1033.77
2022-12-18T06:11:01.078Z,1033.81
2022-12-18T06:12:01.079Z,1033.85
2022-12-18T06:13:01.192Z,1033.89
2022-12-18T06:14:02.196Z,1033.91
2022-12-18T06:15:02.199Z,1033.88
2022-12-18T06:16:01.134Z,1033.89
2022-12-18T06:17:01.094Z,1033.93
2022-12-18T06:18:01.146Z,1033.91
2022-12-18T06:19:04.806Z,1033.92
2022-12-18T06:20:01.390Z,1033.95
2022-12-18T06:21:01.397Z,1033.92
2022-12-18T06:22:01.502Z,1033.93
2022-12-18T06:23:02.167Z,1033.9
2022-12-18T06:24:07.969Z,1033.96
2022-12-18T06:25:01.165Z,1033.91
2022-12-18T06:26:01.068Z,1033.99
2022-12-18T06:27:01.076Z,1033.93
2022-12-18T06:28:01.081Z,1033.96
2022-12-18T06:29:10.533Z,1033.92
2022-12-18T06:30:01.877Z,1033.96
2022-12-18T06:31:01.569Z,1033.92
2022-12-18T06:32:01.254Z,1033.93
2022-12-18T06:33:01.118Z,1033.98
2022-12-18T06:34:14.083Z,1033.94
2022-12-18T06:35:00.796Z,1033.94
2022-12-18T06:36:01.359Z,1033.98
2022-12-18T06:37:02.136Z,1033.98
2022-12-18T06:38:01.383Z,1033.95
2022-12-18T06:39:16.905Z,1034.01
2022-12-18T06:40:01.049Z,1034.06
2022-12-18T06:41:01.404Z,1034.06
2022-12-18T06:42:02.089Z,1034.06
2022-12-18T06:43:02.633Z,1034.06
2022-12-18T06:44:01.060Z,1034
2022-12-18T06:45:01.420Z,1034.02
2022-12-18T06:46:01.237Z,1034.07
2022-12-18T06:47:01.088Z,1034.03
2022-12-18T06:48:01.100Z,1034.08
2022-12-18T06:49:01.100Z,1034.08
2022-12-18T06:50:01.129Z,1034.12
2022-12-18T06:51:01.072Z,1034.13
2022-12-18T06:52:01.313Z,1034.14
2022-12-18T06:53:01.148Z,1034.21
2022-12-18T06:54:01.047Z,1034.23
2022-12-18T06:55:01.043Z,1034.29
2022-12-18T06:56:05.062Z,1034.3
2022-12-18T06:57:01.159Z,1034.33
2022-12-18T06:58:00.857Z,1034.33
2022-12-18T06:59:00.448Z,1034.38
2022-12-18T07:00:00.039Z,1034.32
2022-12-18T07:00:59.945Z,1034.31
2022-12-18T07:01:59.697Z,1034.35
2022-12-18T07:02:59.671Z,1034.4
2022-12-18T07:04:01.285Z,1034.4
2022-12-18T07:05:07.482Z,1034.47
2022-12-18T07:06:01.071Z,1034.48
2022-12-18T07:07:01.256Z,1034.46
2022-12-18T07:08:01.063Z,1034.47
2022-12-18T07:09:01.125Z,1034.48
2022-12-18T07:10:01.525Z,1034.46
2022-12-18T07:11:01.124Z,1034.41
2022-12-18T07:12:01.135Z,1034.41
2022-12-18T07:13:01.166Z,1034.43
2022-12-18T07:14:01.142Z,1034.51
2022-12-18T07:15:01.041Z,1034.44
2022-12-18T07:16:01.099Z,1034.47
2022-12-18T07:17:01.541Z,1034.51
2022-12-18T07:18:00.690Z,1034.47
2022-12-18T07:19:00.349Z,1034.52
2022-12-18T07:19:59.949Z,1034.53
2022-12-18T07:20:59.638Z,1034.57
2022-12-18T07:22:01.774Z,1034.56
2022-12-18T07:23:01.796Z,1034.6
2022-12-18T07:24:01.115Z,1034.56
2022-12-18T07:25:00.787Z,1034.58
2022-12-18T07:26:00.441Z,1034.58
2022-12-18T07:27:00.102Z,1034.56
2022-12-18T07:27:59.813Z,1034.55
2022-12-18T07:28:59.593Z,1034.61
2022-12-18T07:30:02.014Z,1034.57
2022-12-18T07:31:01.344Z,1034.61
2022-12-18T07:32:00.829Z,1034.57
2022-12-18T07:33:00.570Z,1034.55
2022-12-18T07:34:00.233Z,1034.52
2022-12-18T07:34:59.928Z,1034.55
2022-12-18T07:35:59.641Z,1034.54
2022-12-18T07:36:59.630Z,1034.64
2022-12-18T07:38:02.415Z,1034.69
2022-12-18T07:39:01.778Z,1034.73
2022-12-18T07:40:01.107Z,1034.73
2022-12-18T07:41:00.811Z,1034.73
2022-12-18T07:42:00.369Z,1034.76
2022-12-18T07:43:00.036Z,1034.79
2022-12-18T07:43:59.805Z,1034.77
2022-12-18T07:45:01.512Z,1034.71
2022-12-18T07:46:01.517Z,1034.72
2022-12-18T07:47:01.148Z,1034.74
2022-12-18T07:48:01.164Z,1034.74
2022-12-18T07:49:01.060Z,1034.72
2022-12-18T07:50:01.065Z,1034.72
2022-12-18T07:51:01.076Z,1034.7
2022-12-18T07:52:01.085Z,1034.66
2022-12-18T07:53:01.440Z,1034.6
2022-12-18T07:54:02.197Z,1034.63
2022-12-18T07:55:02.621Z,1034.57
2022-12-18T07:56:25.995Z,1034.6
2022-12-18T07:57:01.115Z,1034.63
2022-12-18T07:58:01.495Z,1034.65
2022-12-18T07:59:01.868Z,1034.64
2022-12-18T08:00:04.406Z,1034.7
2022-12-18T08:01:01.651Z,1034.73
2022-12-18T08:02:01.434Z,1034.63
2022-12-18T08:03:01.291Z,1034.71
2022-12-18T08:04:02.029Z,1034.66
2022-12-18T08:05:06.114Z,1034.65
2022-12-18T08:06:01.119Z,1034.61
2022-12-18T08:07:01.078Z,1034.61
2022-12-18T08:08:01.090Z,1034.57
2022-12-18T08:09:01.077Z,1034.56
2022-12-18T08:10:08.884Z,1034.56
2022-12-18T08:11:01.052Z,1034.65
2022-12-18T08:12:01.037Z,1034.67
2022-12-18T08:13:04.925Z,1034.64
2022-12-18T08:14:01.796Z,1034.65
2022-12-18T08:15:11.214Z,1034.68
2022-12-18T08:16:01.752Z,1034.69
2022-12-18T08:17:01.199Z,1034.63
2022-12-18T08:18:01.948Z,1034.62
2022-12-18T08:19:02.953Z,1034.64
2022-12-18T08:20:14.529Z,1034.69
2022-12-18T08:21:01.165Z,1034.67
2022-12-18T08:22:01.158Z,1034.66
2022-12-18T08:23:01.099Z,1034.68
2022-12-18T08:24:01.386Z,1034.69
2022-12-18T08:25:16.914Z,1034.64
2022-12-18T08:26:01.085Z,1034.58
2022-12-18T08:28:01.096Z,1034.58
2022-12-18T08:29:01.271Z,1034.59
2022-12-18T08:30:01.330Z,1034.59
2022-12-18T08:31:02.244Z,1034.63
2022-12-18T08:32:01.343Z,1034.61
2022-12-18T08:33:01.355Z,1034.59
2022-12-18T08:34:01.093Z,1034.58
2022-12-18T08:35:01.216Z,1034.54
2022-12-18T08:36:01.165Z,1034.53
2022-12-18T08:37:01.384Z,1034.52
2022-12-18T08:38:00.521Z,1034.51
2022-12-18T08:39:00.131Z,1034.52
2022-12-18T08:39:59.944Z,1034.51
2022-12-18T08:40:59.617Z,1034.56
2022-12-18T08:42:05.433Z,1034.58
2022-12-18T08:43:01.315Z,1034.62
2022-12-18T08:44:01.073Z,1034.64
2022-12-18T08:45:01.196Z,1034.66
2022-12-18T08:46:01.498Z,1034.61
2022-12-18T08:47:01.110Z,1034.66
2022-12-18T08:48:01.124Z,1034.65
2022-12-18T08:49:01.135Z,1034.68
2022-12-18T08:50:01.131Z,1034.64
2022-12-18T08:51:02.027Z,1034.69
2022-12-18T08:52:01.347Z,1034.68
2022-12-18T08:53:01.267Z,1034.75
2022-12-18T08:54:02.636Z,1034.72
2022-12-18T08:55:01.434Z,1034.77
2022-12-18T08:56:01.057Z,1034.73
2022-12-18T08:57:01.064Z,1034.71
2022-12-18T08:58:00.564Z,1034.73
2022-12-18T08:59:00.259Z,1034.78
2022-12-18T08:59:59.954Z,1034.77
2022-12-18T09:01:00.088Z,1034.67
2022-12-18T09:02:00.005Z,1034.74
2022-12-18T09:02:59.853Z,1034.72
2022-12-18T09:03:59.662Z,1034.72
2022-12-18T09:05:01.313Z,1034.68
2022-12-18T09:06:01.446Z,1034.71
2022-12-18T09:07:01.140Z,1034.71
2022-12-18T09:08:01.156Z,1034.76
2022-12-18T09:09:00.955Z,1034.84
2022-12-18T09:10:01.560Z,1034.86
2022-12-18T09:11:01.265Z,1034.82
2022-12-18T09:12:01.059Z,1034.83
2022-12-18T09:13:01.061Z,1034.84
2022-12-18T09:14:01.071Z,1034.88
2022-12-18T09:15:01.075Z,1034.88
2022-12-18T09:16:01.480Z,1034.85
2022-12-18T09:17:01.393Z,1034.82
2022-12-18T09:18:00.781Z,1034.86
2022-12-18T09:19:00.615Z,1034.81
2022-12-18T09:20:00.280Z,1034.82
2022-12-18T09:20:59.868Z,1034.79
2022-12-18T09:22:01.545Z,1034.8
2022-12-18T09:23:01.116Z,1034.75
2022-12-18T09:24:01.147Z,1034.74
2022-12-18T09:25:01.143Z,1034.74
2022-12-18T09:26:01.041Z,1034.71
2022-12-18T09:27:01.643Z,1034.76
2022-12-18T09:28:01.307Z,1034.78
2022-12-18T09:29:01.260Z,1034.82
2022-12-18T09:30:01.074Z,1034.91
2022-12-18T09:31:01.130Z,1034.81
2022-12-18T09:32:01.380Z,1034.88
2022-12-18T09:33:01.397Z,1034.9
2022-12-18T09:34:00.797Z,1034.92
2022-12-18T09:35:00.665Z,1034.88
2022-12-18T09:36:02.283Z,1034.9
2022-12-18T09:37:04.052Z,1034.96
2022-12-18T09:38:00.690Z,1034.97
2022-12-18T09:39:04.974Z,1034.99
2022-12-18T09:40:01.332Z,1034.98
2022-12-18T09:41:05.264Z,1034.97
2022-12-18T09:42:01.493Z,1035.02
2022-12-18T09:43:01.540Z,1035.06
2022-12-18T09:44:02.201Z,1035.08
2022-12-18T09:45:01.259Z,1035.12
2022-12-18T09:46:07.886Z,1035.14
2022-12-18T09:47:01.049Z,1035.18
2022-12-18T09:48:01.226Z,1035.22
2022-12-18T09:49:01.056Z,1035.22
2022-12-18T09:50:01.086Z,1035.2
2022-12-18T09:51:11.202Z,1035.2
2022-12-18T09:52:01.588Z,1035.22
2022-12-18T09:53:01.118Z,1035.25
2022-12-18T09:54:01.089Z,1035.3
2022-12-18T09:55:01.126Z,1035.25
2022-12-18T09:56:13.686Z,1035.23
2022-12-18T09:57:02.108Z,1035.3
2022-12-18T09:58:01.211Z,1035.31
2022-12-18T09:59:01.165Z,1035.37
2022-12-18T10:00:01.301Z,1035.34
2022-12-18T10:01:16.914Z,1035.33
2022-12-18T10:02:01.240Z,1035.38
2022-12-18T10:03:01.126Z,1035.28
2022-12-18T10:04:01.143Z,1035.3
2022-12-18T10:05:01.081Z,1035.25
2022-12-18T10:06:01.088Z,1035.23
2022-12-18T10:07:07.280Z,1035.24
2022-12-18T10:08:01.079Z,1035.26
2022-12-18T10:09:01.055Z,1035.24
2022-12-18T10:10:01.507Z,1035.24
2022-12-18T10:11:01.505Z,1035.22
2022-12-18T10:12:01.158Z,1035.26
2022-12-18T10:13:04.771Z,1035.21
2022-12-18T10:14:01.215Z,1035.12
2022-12-18T10:15:01.134Z,1035.13
2022-12-18T10:16:01.322Z,1035.08
2022-12-18T10:17:01.155Z,1035.11
2022-12-18T10:18:00.744Z,1035.04
2022-12-18T10:19:00.430Z,1035.07
2022-12-18T10:20:00.143Z,1035.07
2022-12-18T10:20:59.833Z,1035.02
2022-12-18T10:22:01.805Z,1034.97
2022-12-18T10:23:01.836Z,1034.96
2022-12-18T10:24:01.427Z,1034.92
2022-12-18T10:25:02.112Z,1034.86
2022-12-18T10:26:01.767Z,1034.87
2022-12-18T10:27:01.784Z,1034.79
2022-12-18T10:28:01.407Z,1034.76
2022-12-18T10:29:05.474Z,1034.75
2022-12-18T10:30:01.294Z,1034.7
2022-12-18T10:31:01.625Z,1034.7
2022-12-18T10:32:01.208Z,1034.68
2022-12-18T10:33:02.590Z,1034.63
2022-12-18T10:34:02.373Z,1034.67
2022-12-18T10:35:01.376Z,1034.65
2022-12-18T10:36:01.167Z,1034.61
2022-12-18T10:37:01.128Z,1034.6
2022-12-18T10:38:00.761Z,1034.63
2022-12-18T10:39:00.477Z,1034.61
2022-12-18T10:40:01.511Z,1034.55
2022-12-18T10:41:01.934Z,1034.6
2022-12-18T10:42:01.215Z,1034.6
2022-12-18T10:43:01.112Z,1034.53
2022-12-18T10:44:01.116Z,1034.5
2022-12-18T10:45:01.129Z,1034.53
2022-12-18T10:46:01.234Z,1034.52
2022-12-18T10:47:01.271Z,1034.49
2022-12-18T10:48:02.287Z,1034.51
2022-12-18T10:49:01.149Z,1034.51
2022-12-18T10:50:01.196Z,1034.56
2022-12-18T10:51:10.773Z,1034.52
2022-12-18T10:52:01.164Z,1034.54
2022-12-18T10:53:01.856Z,1034.6
2022-12-18T10:54:01.477Z,1034.58
2022-12-18T10:55:02.167Z,1034.56
2022-12-18T10:56:01.376Z,1034.51
2022-12-18T10:57:01.089Z,1034.53
2022-12-18T10:58:00.747Z,1034.44
2022-12-18T10:59:00.387Z,1034.54
2022-12-18T10:59:59.981Z,1034.48
2022-12-18T11:00:59.674Z,1034.48
2022-12-18T11:02:01.913Z,1034.49
2022-12-18T11:03:02.702Z,1034.49
2022-12-18T11:04:02.541Z,1034.46
2022-12-18T11:05:01.411Z,1034.45
2022-12-18T11:06:02.173Z,1034.46
2022-12-18T11:07:01.443Z,1034.43
2022-12-18T11:08:02.360Z,1034.36
2022-12-18T11:09:03.081Z,1034.36
2022-12-18T11:10:01.465Z,1034.34
2022-12-18T11:11:01.079Z,1034.23
2022-12-18T11:12:01.086Z,1034.28
2022-12-18T11:13:01.092Z,1034.23
2022-12-18T11:14:01.781Z,1034.26
2022-12-18T11:15:01.287Z,1034.25
2022-12-18T11:16:01.428Z,1034.27
2022-12-18T11:18:01.136Z,1034.2
2022-12-18T11:19:01.141Z,1034.17
2022-12-18T11:20:01.128Z,1034.14
2022-12-18T11:21:01.212Z,1034.15
2022-12-18T11:22:05.045Z,1034.11
2022-12-18T11:23:01.150Z,1034.17
2022-12-18T11:24:01.088Z,1034.15
2022-12-18T11:26:01.067Z,1034.12
2022-12-18T11:27:07.787Z,1034.09
2022-12-18T11:28:00.787Z,1034
2022-12-18T11:29:01.773Z,1034.02
2022-12-18T11:30:01.089Z,1034.04
2022-12-18T11:31:01.146Z,1034.03
2022-12-18T11:32:09.655Z,1034.01
2022-12-18T11:33:01.153Z,1033.97
2022-12-18T11:35:01.119Z,1034
2022-12-18T11:36:01.519Z,1033.99
2022-12-18T11:37:12.706Z,1033.99
2022-12-18T11:38:01.130Z,1034.01
2022-12-18T11:39:01.046Z,1034.07
2022-12-18T11:40:01.305Z,1033.99
2022-12-18T11:41:01.063Z,1034.03
2022-12-18T11:42:15.514Z,1034.04
2022-12-18T11:43:01.219Z,1034.01
2022-12-18T11:44:01.246Z,1034.07
2022-12-18T11:45:01.858Z,1034.02
2022-12-18T11:46:01.622Z,1033.99
2022-12-18T11:47:01.145Z,1033.97
2022-12-18T11:48:01.151Z,1034.01
2022-12-18T11:49:02.395Z,1034
2022-12-18T11:50:01.272Z,1033.99
2022-12-18T11:51:02.552Z,1034.01
2022-12-18T11:52:01.417Z,1033.99
2022-12-18T11:53:05.902Z,1033.99
2022-12-18T11:54:01.581Z,1034.02
2022-12-18T11:55:01.211Z,1034.03
2022-12-18T11:56:01.145Z,1033.96
2022-12-18T11:57:01.055Z,1033.94
2022-12-18T11:58:00.741Z,1033.95
2022-12-18T11:59:00.346Z,1033.96
2022-12-18T11:59:59.950Z,1033.99
2022-12-18T12:00:59.638Z,1034.01
2022-12-18T12:02:02.270Z,1034.07
2022-12-18T12:03:02.049Z,1034.08
2022-12-18T12:04:01.193Z,1034.12
2022-12-18T12:05:01.103Z,1034.13
2022-12-18T12:06:01.040Z,1034.16
2022-12-18T12:07:03.285Z,1034.06
2022-12-18T12:08:01.427Z,1034.09
2022-12-18T12:09:02.153Z,1034.03
2022-12-18T12:10:01.819Z,1034.03
2022-12-18T12:11:01.776Z,1033.96
2022-12-18T12:12:01.355Z,1033.99